sensor_id;sensor_type;location;lat;lon;timestamp;temperature;humidity
18392;DHT22;9322;50.932;5.318;2024-02-28T00:01:27;1.80;1.40
18392;DHT22;9322;50.932;5.318;2024-02-28T00:03:53;1.80;1.40
18392;DHT22;9322;50.932;5.318;2024-02-28T00:06:19;1.80;1.40
18392;DHT22;9322;50.932;5.318;2024-02-28T00:08:45;1.80;1.40
18392;DHT22;9322;50.932;5.318;2024-02-28T00:11:11;1.70;1.40
18392;DHT22;9322;50.932;5.318;2024-02-28T00:13:37;1.80;1.40
18392;DHT22;9322;50.932;5.318;2024-02-28T00:16:03;2.00;1.40
18392;DHT22;9322;50.932;5.318;2024-02-28T00:18:29;1.90;1.40
18392;DHT22;9322;50.932;5.318;2024-02-28T00:20:56;1.90;1.40
18392;DHT22;9322;50.932;5.318;2024-02-28T00:23:22;1.90;1.40
18392;DHT22;9322;50.932;5.318;2024-02-28T00:25:48;1.80;1.40
18392;DHT22;9322;50.932;5.318;2024-02-28T00:28:13;2.10;1.40
18392;DHT22;9322;50.932;5.318;2024-02-28T00:30:39;1.70;1.40
18392;DHT22;9322;50.932;5.318;2024-02-28T00:33:05;1.70;1.40
18392;DHT22;9322;50.932;5.318;2024-02-28T00:35:32;1.70;1.40
18392;DHT22;9322;50.932;5.318;2024-02-28T00:38:01;1.70;1.40
18392;DHT22;9322;50.932;5.318;2024-02-28T00:40:27;1.60;1.40
18392;DHT22;9322;50.932;5.318;2024-02-28T00:42:54;1.70;1.40
18392;DHT22;9322;50.932;5.318;2024-02-28T00:45:20;1.60;1.40
18392;DHT22;9322;50.932;5.318;2024-02-28T00:47:46;1.50;1.40
18392;DHT22;9322;50.932;5.318;2024-02-28T00:50:11;1.60;1.40
18392;DHT22;9322;50.932;5.318;2024-02-28T00:52:37;1.60;1.40
18392;DHT22;9322;50.932;5.318;2024-02-28T00:55:03;1.70;1.40
18392;DHT22;9322;50.932;5.318;2024-02-28T00:57:31;1.70;1.40
18392;DHT22;9322;50.932;5.318;2024-02-28T00:59:56;1.60;1.40
18392;DHT22;9322;50.932;5.318;2024-02-28T01:02:22;1.60;1.40
18392;DHT22;9322;50.932;5.318;2024-02-28T01:04:48;1.60;1.40
18392;DHT22;9322;50.932;5.318;2024-02-28T01:07:14;1.60;1.40
18392;DHT22;9322;50.932;5.318;2024-02-28T01:09:39;1.40;1.40
18392;DHT22;9322;50.932;5.318;2024-02-28T01:12:05;1.30;1.40
18392;DHT22;9322;50.932;5.318;2024-02-28T01:14:31;1.30;1.40
18392;DHT22;9322;50.932;5.318;2024-02-28T01:16:57;1.40;1.40
18392;DHT22;9322;50.932;5.318;2024-02-28T01:19:22;1.40;1.40
18392;DHT22;9322;50.932;5.318;2024-02-28T01:21:48;1.30;1.40
18392;DHT22;9322;50.932;5.318;2024-02-28T01:24:13;1.20;1.40
18392;DHT22;9322;50.932;5.318;2024-02-28T01:26:39;1.20;1.40
18392;DHT22;9322;50.932;5.318;2024-02-28T01:29:06;1.10;1.40
18392;DHT22;9322;50.932;5.318;2024-02-28T01:31:31;1.10;1.40
18392;DHT22;9322;50.932;5.318;2024-02-28T01:33:57;1.10;1.40
18392;DHT22;9322;50.932;5.318;2024-02-28T01:36:23;1.20;1.40
18392;DHT22;9322;50.932;5.318;2024-02-28T01:38:48;1.40;1.40
18392;DHT22;9322;50.932;5.318;2024-02-28T01:41:14;1.40;1.40
18392;DHT22;9322;50.932;5.318;2024-02-28T01:43:40;1.40;1.40
18392;DHT22;9322;50.932;5.318;2024-02-28T01:46:26;1.40;1.40
18392;DHT22;9322;50.932;5.318;2024-02-28T01:48:53;1.30;1.40
18392;DHT22;9322;50.932;5.318;2024-02-28T01:51:24;1.30;1.40
18392;DHT22;9322;50.932;5.318;2024-02-28T01:53:52;1.30;1.40
18392;DHT22;9322;50.932;5.318;2024-02-28T01:56:20;1.40;1.40
18392;DHT22;9322;50.932;5.318;2024-02-28T01:58:48;1.40;1.40
18392;DHT22;9322;50.932;5.318;2024-02-28T02:01:15;1.30;1.40
18392;DHT22;9322;50.932;5.318;2024-02-28T02:03:42;1.30;1.40
18392;DHT22;9322;50.932;5.318;2024-02-28T02:06:08;1.30;1.40
18392;DHT22;9322;50.932;5.318;2024-02-28T02:08:34;1.40;1.40
18392;DHT22;9322;50.932;5.318;2024-02-28T02:11:00;1.40;1.40
18392;DHT22;9322;50.932;5.318;2024-02-28T02:13:26;1.30;1.40
18392;DHT22;9322;50.932;5.318;2024-02-28T02:15:51;1.40;1.40
18392;DHT22;9322;50.932;5.318;2024-02-28T02:18:17;1.30;1.40
18392;DHT22;9322;50.932;5.318;2024-02-28T02:20:44;1.20;1.40
18392;DHT22;9322;50.932;5.318;2024-02-28T02:23:12;1.10;1.40
18392;DHT22;9322;50.932;5.318;2024-02-28T02:25:46;1.10;1.40
18392;DHT22;9322;50.932;5.318;2024-02-28T02:28:12;1.10;1.40
18392;DHT22;9322;50.932;5.318;2024-02-28T02:30:39;1.00;1.40
18392;DHT22;9322;50.932;5.318;2024-02-28T02:33:05;1.00;1.40
18392;DHT22;9322;50.932;5.318;2024-02-28T02:35:33;1.00;1.40
18392;DHT22;9322;50.932;5.318;2024-02-28T02:37:59;0.90;1.40
18392;DHT22;9322;50.932;5.318;2024-02-28T02:40:24;0.90;1.40
18392;DHT22;9322;50.932;5.318;2024-02-28T02:42:50;0.90;1.40
18392;DHT22;9322;50.932;5.318;2024-02-28T02:45:16;0.90;1.40
18392;DHT22;9322;50.932;5.318;2024-02-28T02:47:42;0.90;1.40
18392;DHT22;9322;50.932;5.318;2024-02-28T02:50:10;0.90;1.40
18392;DHT22;9322;50.932;5.318;2024-02-28T02:52:36;0.80;1.40
18392;DHT22;9322;50.932;5.318;2024-02-28T02:55:02;0.80;1.40
18392;DHT22;9322;50.932;5.318;2024-02-28T02:57:27;0.70;1.40
18392;DHT22;9322;50.932;5.318;2024-02-28T02:59:53;0.70;1.40
18392;DHT22;9322;50.932;5.318;2024-02-28T03:02:19;0.70;1.40
18392;DHT22;9322;50.932;5.318;2024-02-28T03:04:44;0.60;1.40
18392;DHT22;9322;50.932;5.318;2024-02-28T03:07:10;0.70;1.40
18392;DHT22;9322;50.932;5.318;2024-02-28T03:09:36;0.70;1.40
18392;DHT22;9322;50.932;5.318;2024-02-28T03:12:02;0.80;1.40
18392;DHT22;9322;50.932;5.318;2024-02-28T03:14:27;0.80;1.40
18392;DHT22;9322;50.932;5.318;2024-02-28T03:16:53;0.80;1.40
18392;DHT22;9322;50.932;5.318;2024-02-28T03:19:19;0.70;1.40
18392;DHT22;9322;50.932;5.318;2024-02-28T03:21:45;0.70;1.40
18392;DHT22;9322;50.932;5.318;2024-02-28T03:24:11;0.70;1.40
18392;DHT22;9322;50.932;5.318;2024-02-28T03:26:36;0.70;1.40
18392;DHT22;9322;50.932;5.318;2024-02-28T03:29:02;0.60;1.40
18392;DHT22;9322;50.932;5.318;2024-02-28T03:31:28;0.60;1.40
18392;DHT22;9322;50.932;5.318;2024-02-28T03:33:54;0.60;1.40
18392;DHT22;9322;50.932;5.318;2024-02-28T03:36:20;0.50;1.40
18392;DHT22;9322;50.932;5.318;2024-02-28T03:38:46;0.50;1.40
18392;DHT22;9322;50.932;5.318;2024-02-28T03:41:11;0.50;1.40
18392;DHT22;9322;50.932;5.318;2024-02-28T03:43:37;0.50;1.40
18392;DHT22;9322;50.932;5.318;2024-02-28T03:46:03;0.60;1.40
18392;DHT22;9322;50.932;5.318;2024-02-28T03:48:28;0.60;1.40
18392;DHT22;9322;50.932;5.318;2024-02-28T03:50:54;0.60;1.40
18392;DHT22;9322;50.932;5.318;2024-02-28T03:53:20;0.70;1.40
18392;DHT22;9322;50.932;5.318;2024-02-28T03:55:46;0.80;1.40
18392;DHT22;9322;50.932;5.318;2024-02-28T03:58:12;0.80;1.40
18392;DHT22;9322;50.932;5.318;2024-02-28T04:00:37;0.80;1.40
18392;DHT22;9322;50.932;5.318;2024-02-28T04:03:04;0.90;1.40
18392;DHT22;9322;50.932;5.318;2024-02-28T04:05:30;1.00;1.40
18392;DHT22;9322;50.932;5.318;2024-02-28T04:07:56;1.00;1.40
18392;DHT22;9322;50.932;5.318;2024-02-28T04:10:22;1.00;1.40
18392;DHT22;9322;50.932;5.318;2024-02-28T04:12:48;1.00;1.40
18392;DHT22;9322;50.932;5.318;2024-02-28T04:15:14;1.00;1.40
18392;DHT22;9322;50.932;5.318;2024-02-28T04:17:40;0.90;1.40
18392;DHT22;9322;50.932;5.318;2024-02-28T04:20:09;1.00;1.40
18392;DHT22;9322;50.932;5.318;2024-02-28T04:22:35;0.90;1.40
18392;DHT22;9322;50.932;5.318;2024-02-28T04:25:00;0.90;1.40
18392;DHT22;9322;50.932;5.318;2024-02-28T04:27:26;0.90;1.40
18392;DHT22;9322;50.932;5.318;2024-02-28T04:29:52;0.90;1.40
18392;DHT22;9322;50.932;5.318;2024-02-28T04:32:17;0.90;1.40
18392;DHT22;9322;50.932;5.318;2024-02-28T04:34:43;0.90;1.40
18392;DHT22;9322;50.932;5.318;2024-02-28T04:37:09;0.90;1.40
18392;DHT22;9322;50.932;5.318;2024-02-28T04:39:34;0.90;1.40
18392;DHT22;9322;50.932;5.318;2024-02-28T04:42:00;0.90;1.40
18392;DHT22;9322;50.932;5.318;2024-02-28T04:44:25;0.80;1.40
18392;DHT22;9322;50.932;5.318;2024-02-28T04:46:51;0.80;1.40
18392;DHT22;9322;50.932;5.318;2024-02-28T04:49:17;0.70;1.40
18392;DHT22;9322;50.932;5.318;2024-02-28T04:51:43;0.60;1.40
18392;DHT22;9322;50.932;5.318;2024-02-28T04:54:08;0.50;1.40
18392;DHT22;9322;50.932;5.318;2024-02-28T04:56:39;0.50;1.40
18392;DHT22;9322;50.932;5.318;2024-02-28T04:59:05;0.50;1.40
18392;DHT22;9322;50.932;5.318;2024-02-28T05:01:31;0.50;1.40
18392;DHT22;9322;50.932;5.318;2024-02-28T05:03:56;0.50;1.40
18392;DHT22;9322;50.932;5.318;2024-02-28T05:06:22;0.40;1.40
18392;DHT22;9322;50.932;5.318;2024-02-28T05:08:48;0.30;1.40
18392;DHT22;9322;50.932;5.318;2024-02-28T05:11:13;0.20;1.40
18392;DHT22;9322;50.932;5.318;2024-02-28T05:13:39;0.30;1.40
18392;DHT22;9322;50.932;5.318;2024-02-28T05:16:12;0.20;1.40
18392;DHT22;9322;50.932;5.318;2024-02-28T05:18:38;0.20;1.40
18392;DHT22;9322;50.932;5.318;2024-02-28T05:21:04;0.20;1.40
18392;DHT22;9322;50.932;5.318;2024-02-28T05:23:29;0.30;1.40
18392;DHT22;9322;50.932;5.318;2024-02-28T05:25:56;0.30;1.40
18392;DHT22;9322;50.932;5.318;2024-02-28T05:28:23;0.30;1.40
18392;DHT22;9322;50.932;5.318;2024-02-28T05:30:49;0.30;1.40
18392;DHT22;9322;50.932;5.318;2024-02-28T05:33:15;0.30;1.40
18392;DHT22;9322;50.932;5.318;2024-02-28T05:35:41;0.30;1.40
18392;DHT22;9322;50.932;5.318;2024-02-28T05:38:06;0.30;1.40
18392;DHT22;9322;50.932;5.318;2024-02-28T05:40:32;0.50;1.40
18392;DHT22;9322;50.932;5.318;2024-02-28T05:42:58;0.50;1.40
18392;DHT22;9322;50.932;5.318;2024-02-28T05:45:23;0.50;1.40
18392;DHT22;9322;50.932;5.318;2024-02-28T05:47:49;0.50;1.40
18392;DHT22;9322;50.932;5.318;2024-02-28T05:50:15;0.50;1.40
18392;DHT22;9322;50.932;5.318;2024-02-28T05:52:43;0.50;1.40
18392;DHT22;9322;50.932;5.318;2024-02-28T05:55:09;0.60;1.40
18392;DHT22;9322;50.932;5.318;2024-02-28T05:57:35;0.60;1.40
18392;DHT22;9322;50.932;5.318;2024-02-28T06:00:00;0.60;1.40
18392;DHT22;9322;50.932;5.318;2024-02-28T06:02:30;0.40;1.40
18392;DHT22;9322;50.932;5.318;2024-02-28T06:04:55;0.50;1.40
18392;DHT22;9322;50.932;5.318;2024-02-28T06:07:21;0.50;1.40
18392;DHT22;9322;50.932;5.318;2024-02-28T06:09:47;0.50;1.40
18392;DHT22;9322;50.932;5.318;2024-02-28T06:12:12;0.50;1.40
18392;DHT22;9322;50.932;5.318;2024-02-28T06:14:38;0.40;1.40
18392;DHT22;9322;50.932;5.318;2024-02-28T06:17:03;0.50;1.40
18392;DHT22;9322;50.932;5.318;2024-02-28T06:19:29;0.50;1.40
18392;DHT22;9322;50.932;5.318;2024-02-28T06:21:55;0.50;1.40
18392;DHT22;9322;50.932;5.318;2024-02-28T06:24:20;0.60;1.40
18392;DHT22;9322;50.932;5.318;2024-02-28T06:26:46;0.60;1.40
18392;DHT22;9322;50.932;5.318;2024-02-28T06:29:12;0.70;1.40
18392;DHT22;9322;50.932;5.318;2024-02-28T06:31:37;0.70;1.40
18392;DHT22;9322;50.932;5.318;2024-02-28T06:34:03;0.70;1.40
18392;DHT22;9322;50.932;5.318;2024-02-28T06:36:29;0.70;1.40
18392;DHT22;9322;50.932;5.318;2024-02-28T06:38:55;0.80;1.40
18392;DHT22;9322;50.932;5.318;2024-02-28T06:41:21;0.90;1.40
18392;DHT22;9322;50.932;5.318;2024-02-28T06:43:46;0.90;1.40
18392;DHT22;9322;50.932;5.318;2024-02-28T06:46:12;0.90;1.40
18392;DHT22;9322;50.932;5.318;2024-02-28T06:48:37;1.00;1.40
18392;DHT22;9322;50.932;5.318;2024-02-28T06:51:03;1.20;1.40
18392;DHT22;9322;50.932;5.318;2024-02-28T06:53:29;1.30;1.40
18392;DHT22;9322;50.932;5.318;2024-02-28T06:55:55;1.40;1.40
18392;DHT22;9322;50.932;5.318;2024-02-28T06:58:20;1.60;1.40
18392;DHT22;9322;50.932;5.318;2024-02-28T07:00:47;2.00;1.40
18392;DHT22;9322;50.932;5.318;2024-02-28T07:03:13;2.50;1.40
18392;DHT22;9322;50.932;5.318;2024-02-28T07:05:39;2.90;1.40
18392;DHT22;9322;50.932;5.318;2024-02-28T07:08:05;3.00;1.40
18392;DHT22;9322;50.932;5.318;2024-02-28T07:10:30;3.00;1.40
18392;DHT22;9322;50.932;5.318;2024-02-28T07:12:56;3.00;1.40
18392;DHT22;9322;50.932;5.318;2024-02-28T07:15:23;3.20;1.40
18392;DHT22;9322;50.932;5.318;2024-02-28T07:17:48;3.20;1.40
18392;DHT22;9322;50.932;5.318;2024-02-28T07:20:14;3.40;1.40
18392;DHT22;9322;50.932;5.318;2024-02-28T07:22:42;3.30;1.40
18392;DHT22;9322;50.932;5.318;2024-02-28T07:25:08;3.30;1.40
18392;DHT22;9322;50.932;5.318;2024-02-28T07:27:34;3.20;1.40
18392;DHT22;9322;50.932;5.318;2024-02-28T07:30:01;3.70;1.40
18392;DHT22;9322;50.932;5.318;2024-02-28T07:32:28;4.40;1.40
18392;DHT22;9322;50.932;5.318;2024-02-28T07:34:54;4.20;1.40
18392;DHT22;9322;50.932;5.318;2024-02-28T07:37:21;3.70;1.40
18392;DHT22;9322;50.932;5.318;2024-02-28T07:39:46;3.60;1.40
18392;DHT22;9322;50.932;5.318;2024-02-28T07:42:13;3.60;1.40
18392;DHT22;9322;50.932;5.318;2024-02-28T07:44:38;3.80;1.40
18392;DHT22;9322;50.932;5.318;2024-02-28T07:47:06;4.10;1.40
18392;DHT22;9322;50.932;5.318;2024-02-28T07:49:31;4.10;1.40
18392;DHT22;9322;50.932;5.318;2024-02-28T07:51:57;5.00;1.40
18392;DHT22;9322;50.932;5.318;2024-02-28T07:54:23;5.10;1.40
18392;DHT22;9322;50.932;5.318;2024-02-28T07:56:49;4.70;1.40
18392;DHT22;9322;50.932;5.318;2024-02-28T07:59:15;5.00;1.40
18392;DHT22;9322;50.932;5.318;2024-02-28T08:01:40;4.20;1.40
18392;DHT22;9322;50.932;5.318;2024-02-28T08:04:06;4.00;1.40
18392;DHT22;9322;50.932;5.318;2024-02-28T08:06:32;3.70;1.40
18392;DHT22;9322;50.932;5.318;2024-02-28T08:08:58;3.70;1.40
18392;DHT22;9322;50.932;5.318;2024-02-28T08:11:24;3.60;1.40
18392;DHT22;9322;50.932;5.318;2024-02-28T08:13:50;3.60;1.40
18392;DHT22;9322;50.932;5.318;2024-02-28T08:16:16;3.10;1.40
18392;DHT22;9322;50.932;5.318;2024-02-28T08:18:42;3.10;1.40
18392;DHT22;9322;50.932;5.318;2024-02-28T08:21:08;3.00;1.40
18392;DHT22;9322;50.932;5.318;2024-02-28T08:23:34;3.10;1.40
18392;DHT22;9322;50.932;5.318;2024-02-28T08:26:00;3.40;1.40
18392;DHT22;9322;50.932;5.318;2024-02-28T08:28:25;3.70;1.40
18392;DHT22;9322;50.932;5.318;2024-02-28T08:30:51;4.00;1.40
18392;DHT22;9322;50.932;5.318;2024-02-28T08:33:17;4.00;1.40
18392;DHT22;9322;50.932;5.318;2024-02-28T08:35:42;4.10;1.40
18392;DHT22;9322;50.932;5.318;2024-02-28T08:38:08;3.60;1.40
18392;DHT22;9322;50.932;5.318;2024-02-28T08:40:34;3.50;1.40
18392;DHT22;9322;50.932;5.318;2024-02-28T08:43:00;3.70;1.40
18392;DHT22;9322;50.932;5.318;2024-02-28T08:45:25;3.70;1.40
18392;DHT22;9322;50.932;5.318;2024-02-28T08:47:51;3.70;1.40
18392;DHT22;9322;50.932;5.318;2024-02-28T08:50:18;3.50;1.40
18392;DHT22;9322;50.932;5.318;2024-02-28T08:52:44;3.60;1.40
18392;DHT22;9322;50.932;5.318;2024-02-28T08:55:09;4.20;1.40
18392;DHT22;9322;50.932;5.318;2024-02-28T08:57:35;4.70;1.40
18392;DHT22;9322;50.932;5.318;2024-02-28T09:00:01;4.90;1.40
18392;DHT22;9322;50.932;5.318;2024-02-28T09:02:27;5.60;1.40
18392;DHT22;9322;50.932;5.318;2024-02-28T09:04:52;5.80;1.40
18392;DHT22;9322;50.932;5.318;2024-02-28T09:07:22;6.10;1.40
18392;DHT22;9322;50.932;5.318;2024-02-28T09:09:48;6.80;1.40
18392;DHT22;9322;50.932;5.318;2024-02-28T09:12:15;7.40;1.40
18392;DHT22;9322;50.932;5.318;2024-02-28T09:14:40;8.00;1.40
18392;DHT22;9322;50.932;5.318;2024-02-28T09:17:06;8.60;1.40
18392;DHT22;9322;50.932;5.318;2024-02-28T09:19:32;8.60;1.40
18392;DHT22;9322;50.932;5.318;2024-02-28T09:21:58;7.80;1.40
18392;DHT22;9322;50.932;5.318;2024-02-28T09:24:24;7.80;1.40
18392;DHT22;9322;50.932;5.318;2024-02-28T09:26:50;8.20;1.40
18392;DHT22;9322;50.932;5.318;2024-02-28T09:29:16;9.40;1.40
18392;DHT22;9322;50.932;5.318;2024-02-28T09:31:41;9.70;1.40
18392;DHT22;9322;50.932;5.318;2024-02-28T09:34:07;10.40;1.40
18392;DHT22;9322;50.932;5.318;2024-02-28T09:36:44;10.90;1.40
18392;DHT22;9322;50.932;5.318;2024-02-28T09:39:13;10.90;1.40
18392;DHT22;9322;50.932;5.318;2024-02-28T09:41:41;9.40;1.40
18392;DHT22;9322;50.932;5.318;2024-02-28T09:44:06;9.00;1.40
18392;DHT22;9322;50.932;5.318;2024-02-28T09:46:33;9.60;1.40
18392;DHT22;9322;50.932;5.318;2024-02-28T09:49:05;9.60;1.40
18392;DHT22;9322;50.932;5.318;2024-02-28T09:51:33;9.30;1.40
18392;DHT22;9322;50.932;5.318;2024-02-28T09:54:06;8.50;1.40
18392;DHT22;9322;50.932;5.318;2024-02-28T09:56:32;8.00;1.40
18392;DHT22;9322;50.932;5.318;2024-02-28T09:58:59;7.80;1.40
18392;DHT22;9322;50.932;5.318;2024-02-28T10:01:26;9.10;1.40
18392;DHT22;9322;50.932;5.318;2024-02-28T10:03:52;8.40;1.40
18392;DHT22;9322;50.932;5.318;2024-02-28T10:06:19;8.40;1.40
18392;DHT22;9322;50.932;5.318;2024-02-28T10:08:45;7.70;1.40
18392;DHT22;9322;50.932;5.318;2024-02-28T10:11:21;7.00;1.40
18392;DHT22;9322;50.932;5.318;2024-02-28T10:13:48;7.20;1.40
18392;DHT22;9322;50.932;5.318;2024-02-28T10:16:14;8.40;1.40
18392;DHT22;9322;50.932;5.318;2024-02-28T10:18:43;8.20;1.40
18392;DHT22;9322;50.932;5.318;2024-02-28T10:21:09;7.80;1.40
18392;DHT22;9322;50.932;5.318;2024-02-28T10:23:36;7.40;1.40
18392;DHT22;9322;50.932;5.318;2024-02-28T10:26:02;7.70;1.40
18392;DHT22;9322;50.932;5.318;2024-02-28T10:28:29;7.20;1.40
18392;DHT22;9322;50.932;5.318;2024-02-28T10:30:54;7.60;1.40
18392;DHT22;9322;50.932;5.318;2024-02-28T10:33:20;7.60;1.40
18392;DHT22;9322;50.932;5.318;2024-02-28T10:35:50;7.50;1.40
18392;DHT22;9322;50.932;5.318;2024-02-28T10:38:17;7.20;1.40
18392;DHT22;9322;50.932;5.318;2024-02-28T10:40:43;7.40;1.40
18392;DHT22;9322;50.932;5.318;2024-02-28T10:43:10;7.40;1.40
18392;DHT22;9322;50.932;5.318;2024-02-28T10:45:36;7.50;1.40
18392;DHT22;9322;50.932;5.318;2024-02-28T10:48:04;7.70;1.40
18392;DHT22;9322;50.932;5.318;2024-02-28T10:50:30;7.90;1.40
18392;DHT22;9322;50.932;5.318;2024-02-28T10:53:01;7.80;1.40
18392;DHT22;9322;50.932;5.318;2024-02-28T10:55:33;7.70;1.40
18392;DHT22;9322;50.932;5.318;2024-02-28T10:58:08;7.60;1.40
18392;DHT22;9322;50.932;5.318;2024-02-28T11:00:39;7.40;1.40
18392;DHT22;9322;50.932;5.318;2024-02-28T11:03:08;7.70;1.40
18392;DHT22;9322;50.932;5.318;2024-02-28T11:05:38;7.90;1.40
18392;DHT22;9322;50.932;5.318;2024-02-28T11:08:26;7.50;1.40
18392;DHT22;9322;50.932;5.318;2024-02-28T11:10:59;7.80;1.40
18392;DHT22;9322;50.932;5.318;2024-02-28T11:13:26;8.00;1.40
18392;DHT22;9322;50.932;5.318;2024-02-28T11:15:52;8.10;1.40
18392;DHT22;9322;50.932;5.318;2024-02-28T11:18:18;8.70;1.40
18392;DHT22;9322;50.932;5.318;2024-02-28T11:20:44;8.80;1.40
18392;DHT22;9322;50.932;5.318;2024-02-28T11:23:13;8.60;1.40
18392;DHT22;9322;50.932;5.318;2024-02-28T11:25:40;8.10;1.40
18392;DHT22;9322;50.932;5.318;2024-02-28T11:28:06;8.20;1.40
18392;DHT22;9322;50.932;5.318;2024-02-28T11:30:33;8.40;1.40
18392;DHT22;9322;50.932;5.318;2024-02-28T11:32:59;8.30;1.40
18392;DHT22;9322;50.932;5.318;2024-02-28T11:35:27;8.60;1.40
18392;DHT22;9322;50.932;5.318;2024-02-28T11:37:57;8.70;1.40
18392;DHT22;9322;50.932;5.318;2024-02-28T11:40:26;8.80;1.40
18392;DHT22;9322;50.932;5.318;2024-02-28T11:42:52;9.30;1.40
18392;DHT22;9322;50.932;5.318;2024-02-28T11:45:19;9.60;1.40
18392;DHT22;9322;50.932;5.318;2024-02-28T11:47:45;9.60;1.40
18392;DHT22;9322;50.932;5.318;2024-02-28T11:50:11;9.50;1.40
18392;DHT22;9322;50.932;5.318;2024-02-28T11:52:37;9.80;1.40
18392;DHT22;9322;50.932;5.318;2024-02-28T11:55:03;10.10;1.40
18392;DHT22;9322;50.932;5.318;2024-02-28T11:57:29;9.80;1.40
18392;DHT22;9322;50.932;5.318;2024-02-28T12:00:11;9.80;1.40
18392;DHT22;9322;50.932;5.318;2024-02-28T12:02:40;9.70;1.40
18392;DHT22;9322;50.932;5.318;2024-02-28T12:05:06;9.80;1.40
18392;DHT22;9322;50.932;5.318;2024-02-28T12:07:32;10.10;1.40
18392;DHT22;9322;50.932;5.318;2024-02-28T12:09:59;10.20;1.40
18392;DHT22;9322;50.932;5.318;2024-02-28T12:12:26;10.50;1.40
18392;DHT22;9322;50.932;5.318;2024-02-28T12:14:52;10.70;1.40
18392;DHT22;9322;50.932;5.318;2024-02-28T12:17:18;10.60;1.40
18392;DHT22;9322;50.932;5.318;2024-02-28T12:19:44;10.60;1.40
18392;DHT22;9322;50.932;5.318;2024-02-28T12:22:10;10.90;1.40
18392;DHT22;9322;50.932;5.318;2024-02-28T12:24:36;10.90;1.40
18392;DHT22;9322;50.932;5.318;2024-02-28T12:27:02;10.90;1.40
18392;DHT22;9322;50.932;5.318;2024-02-28T12:29:27;10.90;1.40
18392;DHT22;9322;50.932;5.318;2024-02-28T12:31:53;11.10;1.40
18392;DHT22;9322;50.932;5.318;2024-02-28T12:34:19;11.20;1.40
18392;DHT22;9322;50.932;5.318;2024-02-28T12:36:45;11.10;1.40
18392;DHT22;9322;50.932;5.318;2024-02-28T12:39:10;11.10;1.40
18392;DHT22;9322;50.932;5.318;2024-02-28T12:41:38;11.00;1.40
18392;DHT22;9322;50.932;5.318;2024-02-28T12:44:07;11.20;1.40
18392;DHT22;9322;50.932;5.318;2024-02-28T12:46:34;11.40;1.40
18392;DHT22;9322;50.932;5.318;2024-02-28T12:49:00;11.90;1.40
18392;DHT22;9322;50.932;5.318;2024-02-28T12:51:40;11.20;1.40
18392;DHT22;9322;50.932;5.318;2024-02-28T12:54:07;10.60;1.40
18392;DHT22;9322;50.932;5.318;2024-02-28T12:56:37;10.80;1.40
18392;DHT22;9322;50.932;5.318;2024-02-28T12:59:04;10.90;1.40
18392;DHT22;9322;50.932;5.318;2024-02-28T13:01:30;11.30;1.40
18392;DHT22;9322;50.932;5.318;2024-02-28T13:03:56;11.50;1.40
18392;DHT22;9322;50.932;5.318;2024-02-28T13:06:22;11.40;1.40
18392;DHT22;9322;50.932;5.318;2024-02-28T13:08:48;11.40;1.40
18392;DHT22;9322;50.932;5.318;2024-02-28T13:11:21;11.10;1.40
18392;DHT22;9322;50.932;5.318;2024-02-28T13:13:47;11.30;1.40
18392;DHT22;9322;50.932;5.318;2024-02-28T13:16:13;11.30;1.40
18392;DHT22;9322;50.932;5.318;2024-02-28T13:18:39;11.70;1.40
18392;DHT22;9322;50.932;5.318;2024-02-28T13:21:05;11.90;1.40
18392;DHT22;9322;50.932;5.318;2024-02-28T13:23:31;11.70;1.40
18392;DHT22;9322;50.932;5.318;2024-02-28T13:25:57;11.80;1.40
18392;DHT22;9322;50.932;5.318;2024-02-28T13:28:23;11.80;1.40
18392;DHT22;9322;50.932;5.318;2024-02-28T13:31:02;11.40;1.40
18392;DHT22;9322;50.932;5.318;2024-02-28T13:33:28;11.20;1.40
18392;DHT22;9322;50.932;5.318;2024-02-28T13:35:54;10.90;1.40
18392;DHT22;9322;50.932;5.318;2024-02-28T13:38:21;10.80;1.40
18392;DHT22;9322;50.932;5.318;2024-02-28T13:40:47;10.80;1.40
18392;DHT22;9322;50.932;5.318;2024-02-28T13:43:13;10.60;1.40
18392;DHT22;9322;50.932;5.318;2024-02-28T13:45:40;10.80;1.40
18392;DHT22;9322;50.932;5.318;2024-02-28T13:48:19;11.00;1.40
18392;DHT22;9322;50.932;5.318;2024-02-28T13:50:46;11.30;1.40
18392;DHT22;9322;50.932;5.318;2024-02-28T13:53:13;11.30;1.40
18392;DHT22;9322;50.932;5.318;2024-02-28T13:55:43;11.20;1.40
18392;DHT22;9322;50.932;5.318;2024-02-28T13:58:11;11.20;1.40
18392;DHT22;9322;50.932;5.318;2024-02-28T14:00:37;11.20;1.40
18392;DHT22;9322;50.932;5.318;2024-02-28T14:03:04;11.00;1.40
18392;DHT22;9322;50.932;5.318;2024-02-28T14:05:30;11.00;1.40
18392;DHT22;9322;50.932;5.318;2024-02-28T14:07:56;10.80;1.40
18392;DHT22;9322;50.932;5.318;2024-02-28T14:10:25;10.90;1.40
18392;DHT22;9322;50.932;5.318;2024-02-28T14:12:51;10.90;1.40
18392;DHT22;9322;50.932;5.318;2024-02-28T14:15:20;10.90;1.40
18392;DHT22;9322;50.932;5.318;2024-02-28T14:17:46;10.80;1.40
18392;DHT22;9322;50.932;5.318;2024-02-28T14:20:12;10.90;1.40
18392;DHT22;9322;50.932;5.318;2024-02-28T14:22:38;10.80;1.40
18392;DHT22;9322;50.932;5.318;2024-02-28T14:25:17;10.80;1.40
18392;DHT22;9322;50.932;5.318;2024-02-28T14:27:46;10.80;1.40
18392;DHT22;9322;50.932;5.318;2024-02-28T14:30:13;10.80;1.40
18392;DHT22;9322;50.932;5.318;2024-02-28T14:32:40;10.70;1.40
18392;DHT22;9322;50.932;5.318;2024-02-28T14:35:07;10.80;1.40
18392;DHT22;9322;50.932;5.318;2024-02-28T14:37:37;11.00;1.40
18392;DHT22;9322;50.932;5.318;2024-02-28T14:40:06;10.70;1.40
18392;DHT22;9322;50.932;5.318;2024-02-28T14:42:36;10.70;1.40
18392;DHT22;9322;50.932;5.318;2024-02-28T14:45:07;10.60;1.40
18392;DHT22;9322;50.932;5.318;2024-02-28T14:47:33;10.70;1.40
18392;DHT22;9322;50.932;5.318;2024-02-28T14:50:04;10.70;1.40
18392;DHT22;9322;50.932;5.318;2024-02-28T14:52:30;10.90;1.40
18392;DHT22;9322;50.932;5.318;2024-02-28T14:54:56;10.90;1.40
18392;DHT22;9322;50.932;5.318;2024-02-28T14:57:22;10.80;1.40
18392;DHT22;9322;50.932;5.318;2024-02-28T14:59:47;10.90;1.40
18392;DHT22;9322;50.932;5.318;2024-02-28T15:02:13;11.00;1.40
18392;DHT22;9322;50.932;5.318;2024-02-28T15:04:39;11.30;1.40
18392;DHT22;9322;50.932;5.318;2024-02-28T15:07:05;11.30;1.40
18392;DHT22;9322;50.932;5.318;2024-02-28T15:09:31;11.10;1.40
18392;DHT22;9322;50.932;5.318;2024-02-28T15:11:56;11.20;1.40
18392;DHT22;9322;50.932;5.318;2024-02-28T15:14:23;11.00;1.40
18392;DHT22;9322;50.932;5.318;2024-02-28T15:16:49;10.90;1.40
18392;DHT22;9322;50.932;5.318;2024-02-28T15:19:14;10.80;1.40
18392;DHT22;9322;50.932;5.318;2024-02-28T15:21:40;10.80;1.40
18392;DHT22;9322;50.932;5.318;2024-02-28T15:24:07;10.90;1.40
18392;DHT22;9322;50.932;5.318;2024-02-28T15:26:32;10.90;1.40
18392;DHT22;9322;50.932;5.318;2024-02-28T15:28:58;10.70;1.40
18392;DHT22;9322;50.932;5.318;2024-02-28T15:31:24;10.70;1.40
18392;DHT22;9322;50.932;5.318;2024-02-28T15:33:50;10.50;1.40
18392;DHT22;9322;50.932;5.318;2024-02-28T15:36:15;10.50;1.40
18392;DHT22;9322;50.932;5.318;2024-02-28T15:38:41;10.10;1.40
18392;DHT22;9322;50.932;5.318;2024-02-28T15:41:07;10.00;1.40
18392;DHT22;9322;50.932;5.318;2024-02-28T15:43:33;10.10;1.40
18392;DHT22;9322;50.932;5.318;2024-02-28T15:46:00;10.10;1.40
18392;DHT22;9322;50.932;5.318;2024-02-28T15:48:26;10.10;1.40
18392;DHT22;9322;50.932;5.318;2024-02-28T15:50:55;10.20;1.40
18392;DHT22;9322;50.932;5.318;2024-02-28T15:53:21;10.10;1.40
18392;DHT22;9322;50.932;5.318;2024-02-28T15:55:47;9.90;1.40
18392;DHT22;9322;50.932;5.318;2024-02-28T15:58:13;10.00;1.40
18392;DHT22;9322;50.932;5.318;2024-02-28T16:00:39;9.70;1.40
18392;DHT22;9322;50.932;5.318;2024-02-28T16:03:05;9.70;1.40
18392;DHT22;9322;50.932;5.318;2024-02-28T16:05:31;9.90;1.40
18392;DHT22;9322;50.932;5.318;2024-02-28T16:07:56;10.00;1.40
18392;DHT22;9322;50.932;5.318;2024-02-28T16:10:23;10.10;1.40